To NAV CANADA Home Page Login to a new session Search on AWWS site Feedback and Comments Disclaimer Vers la page française équivalente Tips FAQ What's new on the site To the Forecasts and Observations / NOTAM section To "File a Flight Plan" website Publications and other links Update of the User's profile FIC Telephone Numbers My Weather Data Folder Route Weather Data Regional Weather Data Local Weather Data To the Forecasts and Observations / NOTAM section
Request Generated 08/28/2016 at 00:26:25 UTC . Weather information available at that time is displayed.

METAR/TAF

SUDBURY/ON    

METAR CYSB 280000Z 16006KT 15SM -RA FEW005 OVC035 17/17 A3017 RMK
CF2SC6 SLP222 DENSITY ALT 1400FT=
METAR CYSB 272300Z 17009KT 20SM SCT005 OVC050 18/17 A3016 RMK CF4SC4
SLP219 DENSITY ALT 1400FT=
METAR CYSB 272200Z 17008KT 20SM -RA FEW020 OVC078 18/16 A3017 RMK
CU2AC6 -RA INTMT SLP221 DENSITY ALT 1500FT=

TAF CYSB 271938Z 2720/2808 22007KT P6SM -SHRA BKN040 OVC110 TEMPO
2720/2803 BKN020 OVC040
FM280300 10006KT P6SM FEW008 OVC020 TEMPO 2803/2806 6SM -RA BR
FM280600 11006KT P6SM OVC030
RMK NXT FCST BY 280200Z=
Your time UTC time
Weather data provided by Environment Canada and NAV CANADA